Blackville, South Carolina
Current Conditions -  °F | °C
As of 3:55 PM on Thursday 23 Oct 2014 (Local Time) from KBNL Reporting Station
Clear Clear  
Wind Chill: 73°   Ceiling: Unl
Heat Index: 73°   Visibility: 10mi
Dew Point: 41°   Wind: 6mph
Humidity: 31%   Direction: 290°WNW
Pressure: 30.01"   Gusts: NA
Location:  33.36°N, 81.27°W
Report Text: KBNL 231955Z AUTO 29005KT 10SM CLR 23/05 A3001 RMK AO2
Loading
Personal Weather Stations






























Interactive Weather Map New forecast layout! Learn more

10-Day Weather Forecast

Advertisements
Track Severe Weather on mobile